Buoy 55947

sailwx.info

Track history (hours):
 
Tides and Currents Weather Stations Pressure Air Temp Water Temp Dewpoint Dewpoint Depression Visibility Wind Speed Wind Dir Waves Ship Positions

Drifting buoy 55947

Last reported at 2018-Jun-20 07:00 UTC. Time now 2018-Jun-20 09:45 UTC.
Position S 36°20' E 163°49'.

Water temperature 18.7 ° C

Date/timePositionNaut miles runAvg speedWind from/ knotsBaromVisibWave heightAir tempDewpointWater temp
2018-Jun-20 07:00S 36°20' E 163°49'1 0.6 18.7
2018-Jun-20 06:00S 36°20' E 163°49'1 0.8 18.8
2018-Jun-20 05:00S 36°20' E 163°50'0 0.5 18.8
2018-Jun-20 04:00S 36°20' E 163°50'0 0.0 18.9
2018-Jun-20 03:00S 36°20' E 163°50'3 0.9 18.9
2018-Jun-19 23:00S 36°17' E 163°53'1 1.0 18.8
2018-Jun-19 22:00S 36°17' E 163°55'1 1.0 18.7
2018-Jun-19 21:00S 36°17' E 163°56'0 0.5 18.7
2018-Jun-19 20:00S 36°17' E 163°55'1 1.1 18.7
2018-Jun-19 19:00S 36°17' E 163°56'0 0.0 18.7
2018-Jun-19 18:00S 36°17' E 163°56'1 0.8 18.7
2018-Jun-19 17:00S 36°17' E 163°57'1 0.6 18.8
2018-Jun-19 15:00S 36°18' E 163°58'2 0.8 18.7
2018-Jun-19 12:00S 36°20' E 164°00'1 1.0 18.6
2018-Jun-19 11:00S 36°20' E 164°01'1 0.6 18.6
2018-Jun-19 10:00S 36°20' E 164°01'1 1.1 18.7
2018-Jun-19 09:00S 36°21' E 164°02'1 0.3 18.7
2018-Jun-19 07:00S 36°22' E 164°02'2 2.3 18.7
2018-Jun-19 06:00S 36°23' E 164°04'0 0.0 18.7
2018-Jun-19 05:00S 36°23' E 164°04'0 0.0 18.8
2018-Jun-19 04:00S 36°23' E 164°04'4 0.7 18.8
2018-Jun-18 23:00S 36°26' E 164°07'1 0.6 18.8
2018-Jun-18 21:00S 36°28' E 164°06'1 1.4 18.8
2018-Jun-18 20:00S 36°28' E 164°04'2 1.6 18.8
2018-Jun-18 19:00S 36°28' E 164°06'0 0.0 18.7
2018-Jun-18 18:00S 36°28' E 164°06'0 0.0 18.7
2018-Jun-18 17:00S 36°28' E 164°06'0 0.0 18.7
2018-Jun-18 16:00S 36°28' E 164°06'0 0.0 18.7
2018-Jun-18 15:00S 36°28' E 164°06'2 0.6 18.7
2018-Jun-18 12:00S 36°30' E 164°06'0 0.0 18.7
2018-Jun-18 11:00S 36°30' E 164°06'1 0.8 18.7
2018-Jun-18 10:00S 36°29' E 164°07'2 2.0 18.7
2018-Jun-18 09:00S 36°31' E 164°05'1 1.3 18.8
2018-Jun-18 08:00S 36°32' E 164°06'0 0.0 18.7
2018-Jun-18 07:00S 36°32' E 164°06'0 0.5 18.8
2018-Jun-18 06:00S 36°32' E 164°05'1 0.8 18.8
2018-Jun-18 05:00S 36°33' E 164°05'0 0.0 18.9
2018-Jun-18 04:00S 36°33' E 164°05'4 0.8 18.9
2018-Jun-17 23:00S 36°35' E 164°01'2 2.0 19.0
2018-Jun-17 22:00S 36°35' E 163°58'0 0.5 19.0
2018-Jun-17 21:00S 36°35' E 163°58'0 0.5 19.0
2018-Jun-17 20:00S 36°35' E 163°57'1 1.1 18.9
2018-Jun-17 19:00S 36°34' E 163°56'1 1.4 19.0
2018-Jun-17 18:00S 36°34' E 163°54'3 3.1 19.0
2018-Jun-17 17:00S 36°32' E 163°52'0 0.0 19.1
2018-Jun-17 16:00S 36°32' E 163°52'7 1.6 19.1
2018-Jun-17 12:00S 36°29' E 163°44'3 3.4 19.2
2018-Jun-17 11:00S 36°26' E 163°41'2 1.9 19.1
2018-Jun-17 10:00S 36°25' E 163°40'1 1.2 19.1
2018-Jun-17 09:00S 36°24' E 163°40'4 3.6 19.2
2018-Jun-17 08:00S 36°21' E 163°37'0 0.0 19.2
2018-Jun-17 07:00S 36°21' E 163°37'2 2.3 19.2
2018-Jun-17 06:00S 36°19' E 163°35'1 0.6 19.1
2018-Jun-17 05:00S 36°19' E 163°35'0 0.5 19.1
2018-Jun-17 04:00S 36°19' E 163°35'8 1.6 19.1
2018-Jun-16 23:00S 36°11' E 163°31'2 1.9 19.2
2018-Jun-16 22:00S 36°10' E 163°29'1 1.1 19.2
2018-Jun-16 21:00S 36°10' E 163°28'1 1.5 19.1
2018-Jun-16 20:00S 36°10' E 163°26'1 1.1 19.2
2018-Jun-16 19:00S 36°09' E 163°25'4 3.6 19.2
2018-Jun-16 18:00S 36°08' E 163°20'0 0.2 19.1
2018-Jun-16 16:00S 36°08' E 163°21'0 0.0 19.1
2018-Jun-16 15:00S 36°08' E 163°21'9 2.4 19.2
2018-Jun-16 11:00S 36°02' E 163°12'0 0.0 19.0
2018-Jun-16 10:00S 36°02' E 163°12'0 0.0 19.1
2018-Jun-16 09:00S 36°02' E 163°12'3 1.7 19.1
2018-Jun-16 07:00S 36°01' E 163°08'2 1.6 19.1
2018-Jun-16 06:00S 36°01' E 163°06'1 1.5 19.2
2018-Jun-16 05:00S 36°01' E 163°04'0 0.5 19.2
2018-Jun-16 04:00S 36°01' E 163°05'10 2.0 19.2
2018-Jun-15 23:00S 35°56' E 162°53'0 0.0 19.2
2018-Jun-15 22:00S 35°56' E 162°53'2 1.6 19.2
2018-Jun-15 21:00S 35°56' E 162°52'0 0.0 19.2
2018-Jun-15 20:00S 35°56' E 162°52'2 1.9 19.2
2018-Jun-15 19:00S 35°55' E 162°50'1 0.8 19.3
2018-Jun-15 18:00S 35°54' E 162°49'3 2.8 19.3
2018-Jun-15 17:00S 35°52' E 162°47'0 0.0 19.3
2018-Jun-15 16:00S 35°52' E 162°47'7 1.8 19.4
2018-Jun-15 12:00S 35°44' E 162°47'0 0.0 19.4
2018-Jun-15 11:00S 35°44' E 162°47'2 1.9 19.4
2018-Jun-15 10:00S 35°43' E 162°48'0 0.5 19.3
2018-Jun-15 09:00S 35°43' E 162°47'1 1.1 19.1
2018-Jun-15 08:00S 35°42' E 162°46'2 1.6 18.4
2018-Jun-15 07:00S 35°41' E 162°44'1 0.8 18.4
2018-Jun-15 06:00S 35°41' E 162°44'2 2.0 18.5
2018-Jun-15 05:00S 35°40' E 162°41'10 1.7 18.5
2018-Jun-14 23:00S 35°33' E 162°33'1 0.6 18.4
2018-Jun-14 22:00S 35°32' E 162°33'3 2.7 18.4
2018-Jun-14 21:00S 35°31' E 162°31'3 1.3 18.2
2018-Jun-14 19:00S 35°28' E 162°29'5 5.1 18.4
2018-Jun-14 18:00S 35°24' E 162°26'0 0.0 18.7
2018-Jun-14 16:00S 35°24' E 162°26'10 9.9 18.6
2018-Jun-14 15:00S 35°17' E 162°17'2 0.5 18.4
2018-Jun-14 11:00S 35°16' E 162°17'2 1.9 18.2
2018-Jun-14 10:00S 35°14' E 162°15'4 2.2 18.1
2018-Jun-14 08:00S 35°11' E 162°12'2 1.5 17.8
2018-Jun-14 07:00S 35°10' E 162°11'2 1.9 17.6
2018-Jun-14 06:00S 35°08' E 162°09'1 0.6 17.7
2018-Jun-14 05:00S 35°09' E 162°09'8 1.4 18.0
2018-Jun-13 23:00S 35°05' E 162°00'2 1.6 17.6
2018-Jun-13 22:00S 35°04' E 161°59'1 0.8 17.6
2018-Jun-13 21:00S 35°03' E 161°58'4 1.5 17.6
2018-Jun-13 18:00S 34°59' E 161°55'0 0.0 17.6
2018-Jun-13 17:00S 34°59' E 161°55'2 2.1 17.5
2018-Jun-13 16:00S 34°59' E 161°53'0 0.0 17.5
2018-Jun-13 15:00S 34°59' E 161°53'5 1.6 17.5
2018-Jun-13 12:00S 34°56' E 161°48'1 0.8 17.4
2018-Jun-13 11:00S 34°55' E 161°47'2 2.1 17.6
2018-Jun-13 10:00S 34°53' E 161°46'1 1.0 17.7
2018-Jun-13 09:00S 34°53' E 161°45'3 2.7 17.6
2018-Jun-13 08:00S 34°52' E 161°43'2 2.5 17.7
2018-Jun-13 07:00S 34°52' E 161°40'0 0.0 17.8
2018-Jun-13 06:00S 34°52' E 161°40'0 0.5 17.8
2018-Jun-13 05:00S 34°52' E 161°39'6 1.0 17.9
2018-Jun-12 23:00S 34°50' E 161°32'1 0.6 17.7
2018-Jun-12 22:00S 34°49' E 161°32'1 1.0 17.7
2018-Jun-12 21:00S 34°49' E 161°31'1 0.8 17.7
2018-Jun-12 20:00S 34°49' E 161°30'0 0.0 17.8
2018-Jun-12 18:00S 34°49' E 161°30'1 1.2 17.9
2018-Jun-12 17:00S 34°48' E 161°29'1 0.8 17.9
2018-Jun-12 16:00S 34°47' E 161°28'0 0.0 17.9
2018-Jun-12 15:00S 34°47' E 161°28'1 0.4 18.0
2018-Jun-12 12:00S 34°48' E 161°27'1 0.6 18.0
2018-Jun-12 11:00S 34°49' E 161°27'1 1.5 18.0
2018-Jun-12 10:00S 34°49' E 161°25'0 0.0 18.0
2018-Jun-12 09:00S 34°49' E 161°25'1 0.8 18.0
2018-Jun-12 08:00S 34°48' E 161°25'0 0.5 18.0
2018-Jun-12 07:00S 34°48' E 161°24'0 0.5 18.0
2018-Jun-12 06:00S 34°48' E 161°23'0 0.0 18.0
2018-Jun-12 05:00S 34°48' E 161°23'1 1.5 18.0
2018-Jun-12 04:00S 34°48' E 161°22'0 0.0 18.0
2018-Jun-11 23:00S 34°48' E 161°22'1 0.6 18.0
2018-Jun-11 22:00S 34°49' E 161°22'1 0.6 17.9
2018-Jun-11 21:00S 34°49' E 161°22'0 0.5 17.9
2018-Jun-11 20:00S 34°49' E 161°21'1 0.6 17.8
2018-Jun-11 19:00S 34°50' E 161°21'1 0.8 17.6
2018-Jun-11 18:00S 34°50' E 161°22'1 0.6 17.6
2018-Jun-11 17:00S 34°51' E 161°22'1 1.2 17.6
2018-Jun-11 16:00S 34°52' E 161°22'0 0.0 17.6
2018-Jun-11 15:00S 34°52' E 161°22'4 1.2 17.5
2018-Jun-11 12:00S 34°56' E 161°21'0 0.0 17.2
2018-Jun-11 11:00S 34°56' E 161°21'0 0.0 17.2
2018-Jun-11 10:00S 34°56' E 161°21'1 0.6 17.2
2018-Jun-11 09:00S 34°56' E 161°21'1 0.6 17.5
2018-Jun-11 08:00S 34°57' E 161°21'1 0.6
2018-Jun-11 06:00S 34°58' E 161°22'1 1.3 17.3
2018-Jun-11 05:00S 34°59' E 161°23'0 0.0 17.3
2018-Jun-11 04:00S 34°59' E 161°23'0 0.0 17.3
2018-Jun-11 03:00S 34°59' E 161°23'2 0.6 17.3
2018-Jun-10 23:00S 35°01' E 161°25'1 1.2 17.2
2018-Jun-10 22:00S 35°01' E 161°26'0 0.5 17.2
2018-Jun-10 21:00S 35°01' E 161°26'1 1.3 17.2
2018-Jun-10 20:00S 35°02' E 161°27'1 0.6 17.2
2018-Jun-10 19:00S 35°02' E 161°27'1 0.8 17.2
2018-Jun-10 18:00S 35°02' E 161°28'0 0.0 17.3
2018-Jun-10 17:00S 35°02' E 161°28'1 1.2 17.3
2018-Jun-10 16:00S 35°03' E 161°29'0 0.0 17.3
2018-Jun-10 15:00S 35°03' E 161°29'1 0.2 17.3
2018-Jun-10 12:00S 35°04' E 161°29'0 0.5 17.3
2018-Jun-10 11:00S 35°04' E 161°29'0 0.0 17.3
2018-Jun-10 10:00S 35°04' E 161°29'1 0.4 17.4
2018-Jun-10 08:00S 35°03' E 161°30'0 0.0 17.6
2018-Jun-10 07:00S 35°03' E 161°30'   17.7
Track history (hours):
 
Tides and Currents Weather Stations Pressure Air Temp Water Temp Dewpoint Dewpoint Depression Visibility Wind Speed Wind Dir Waves Ship Positions

Drifting buoy 55947

Last reported at 2018-Jun-20 07:00 UTC. Time now 2018-Jun-20 09:45 UTC.
Position S 36°20' E 163°49'.

Water temperature 18.7 ° C

Date/timePositionNaut miles runAvg speedWind from/ knotsBaromVisibWave heightAir tempDewpointWater temp
2018-Jun-20 07:00S 36°20' E 163°49'1 0.6 18.7
2018-Jun-20 06:00S 36°20' E 163°49'1 0.8 18.8
2018-Jun-20 05:00S 36°20' E 163°50'0 0.5 18.8
2018-Jun-20 04:00S 36°20' E 163°50'0 0.0 18.9
2018-Jun-20 03:00S 36°20' E 163°50'3 0.9 18.9
2018-Jun-19 23:00S 36°17' E 163°53'1 1.0 18.8
2018-Jun-19 22:00S 36°17' E 163°55'1 1.0 18.7
2018-Jun-19 21:00S 36°17' E 163°56'0 0.5 18.7
2018-Jun-19 20:00S 36°17' E 163°55'1 1.1 18.7
2018-Jun-19 19:00S 36°17' E 163°56'0 0.0 18.7
2018-Jun-19 18:00S 36°17' E 163°56'1 0.8 18.7
2018-Jun-19 17:00S 36°17' E 163°57'1 0.6 18.8
2018-Jun-19 15:00S 36°18' E 163°58'2 0.8 18.7
2018-Jun-19 12:00S 36°20' E 164°00'1 1.0 18.6
2018-Jun-19 11:00S 36°20' E 164°01'1 0.6 18.6
2018-Jun-19 10:00S 36°20' E 164°01'1 1.1 18.7
2018-Jun-19 09:00S 36°21' E 164°02'1 0.3 18.7
2018-Jun-19 07:00S 36°22' E 164°02'2 2.3 18.7
2018-Jun-19 06:00S 36°23' E 164°04'0 0.0 18.7
2018-Jun-19 05:00S 36°23' E 164°04'0 0.0 18.8
2018-Jun-19 04:00S 36°23' E 164°04'4 0.7 18.8
2018-Jun-18 23:00S 36°26' E 164°07'1 0.6 18.8
2018-Jun-18 21:00S 36°28' E 164°06'1 1.4 18.8
2018-Jun-18 20:00S 36°28' E 164°04'2 1.6 18.8
2018-Jun-18 19:00S 36°28' E 164°06'0 0.0 18.7
2018-Jun-18 18:00S 36°28' E 164°06'0 0.0 18.7
2018-Jun-18 17:00S 36°28' E 164°06'0 0.0 18.7
2018-Jun-18 16:00S 36°28' E 164°06'0 0.0 18.7
2018-Jun-18 15:00S 36°28' E 164°06'2 0.6 18.7
2018-Jun-18 12:00S 36°30' E 164°06'0 0.0 18.7
2018-Jun-18 11:00S 36°30' E 164°06'1 0.8 18.7
2018-Jun-18 10:00S 36°29' E 164°07'2 2.0 18.7
2018-Jun-18 09:00S 36°31' E 164°05'1 1.3 18.8
2018-Jun-18 08:00S 36°32' E 164°06'0 0.0 18.7
2018-Jun-18 07:00S 36°32' E 164°06'0 0.5 18.8
2018-Jun-18 06:00S 36°32' E 164°05'1 0.8 18.8
2018-Jun-18 05:00S 36°33' E 164°05'0 0.0 18.9
2018-Jun-18 04:00S 36°33' E 164°05'4 0.8 18.9
2018-Jun-17 23:00S 36°35' E 164°01'2 2.0 19.0
2018-Jun-17 22:00S 36°35' E 163°58'0 0.5 19.0
2018-Jun-17 21:00S 36°35' E 163°58'0 0.5 19.0
2018-Jun-17 20:00S 36°35' E 163°57'1 1.1 18.9
2018-Jun-17 19:00S 36°34' E 163°56'1 1.4 19.0
2018-Jun-17 18:00S 36°34' E 163°54'3 3.1 19.0
2018-Jun-17 17:00S 36°32' E 163°52'0 0.0 19.1
2018-Jun-17 16:00S 36°32' E 163°52'7 1.6 19.1
2018-Jun-17 12:00S 36°29' E 163°44'3 3.4 19.2
2018-Jun-17 11:00S 36°26' E 163°41'2 1.9 19.1
2018-Jun-17 10:00S 36°25' E 163°40'1 1.2 19.1
2018-Jun-17 09:00S 36°24' E 163°40'4 3.6 19.2
2018-Jun-17 08:00S 36°21' E 163°37'0 0.0 19.2
2018-Jun-17 07:00S 36°21' E 163°37'2 2.3 19.2
2018-Jun-17 06:00S 36°19' E 163°35'1 0.6 19.1
2018-Jun-17 05:00S 36°19' E 163°35'0 0.5 19.1
2018-Jun-17 04:00S 36°19' E 163°35'8 1.6 19.1
2018-Jun-16 23:00S 36°11' E 163°31'2 1.9 19.2
2018-Jun-16 22:00S 36°10' E 163°29'1 1.1 19.2
2018-Jun-16 21:00S 36°10' E 163°28'1 1.5 19.1
2018-Jun-16 20:00S 36°10' E 163°26'1 1.1 19.2
2018-Jun-16 19:00S 36°09' E 163°25'4 3.6 19.2
2018-Jun-16 18:00S 36°08' E 163°20'0 0.2 19.1
2018-Jun-16 16:00S 36°08' E 163°21'0 0.0 19.1
2018-Jun-16 15:00S 36°08' E 163°21'9 2.4 19.2
2018-Jun-16 11:00S 36°02' E 163°12'0 0.0 19.0
2018-Jun-16 10:00S 36°02' E 163°12'0 0.0 19.1
2018-Jun-16 09:00S 36°02' E 163°12'3 1.7 19.1
2018-Jun-16 07:00S 36°01' E 163°08'2 1.6 19.1
2018-Jun-16 06:00S 36°01' E 163°06'1 1.5 19.2
2018-Jun-16 05:00S 36°01' E 163°04'0 0.5 19.2
2018-Jun-16 04:00S 36°01' E 163°05'10 2.0 19.2
2018-Jun-15 23:00S 35°56' E 162°53'0 0.0 19.2
2018-Jun-15 22:00S 35°56' E 162°53'2 1.6 19.2
2018-Jun-15 21:00S 35°56' E 162°52'0 0.0 19.2
2018-Jun-15 20:00S 35°56' E 162°52'2 1.9 19.2
2018-Jun-15 19:00S 35°55' E 162°50'1 0.8 19.3
2018-Jun-15 18:00S 35°54' E 162°49'3 2.8 19.3
2018-Jun-15 17:00S 35°52' E 162°47'0 0.0 19.3
2018-Jun-15 16:00S 35°52' E 162°47'7 1.8 19.4
2018-Jun-15 12:00S 35°44' E 162°47'0 0.0 19.4
2018-Jun-15 11:00S 35°44' E 162°47'2 1.9 19.4
2018-Jun-15 10:00S 35°43' E 162°48'0 0.5 19.3
2018-Jun-15 09:00S 35°43' E 162°47'1 1.1 19.1
2018-Jun-15 08:00S 35°42' E 162°46'2 1.6 18.4
2018-Jun-15 07:00S 35°41' E 162°44'1 0.8 18.4
2018-Jun-15 06:00S 35°41' E 162°44'2 2.0 18.5
2018-Jun-15 05:00S 35°40' E 162°41'10 1.7 18.5
2018-Jun-14 23:00S 35°33' E 162°33'1 0.6 18.4
2018-Jun-14 22:00S 35°32' E 162°33'3 2.7 18.4
2018-Jun-14 21:00S 35°31' E 162°31'3 1.3 18.2
2018-Jun-14 19:00S 35°28' E 162°29'5 5.1 18.4
2018-Jun-14 18:00S 35°24' E 162°26'0 0.0 18.7
2018-Jun-14 16:00S 35°24' E 162°26'10 9.9 18.6
2018-Jun-14 15:00S 35°17' E 162°17'2 0.5 18.4
2018-Jun-14 11:00S 35°16' E 162°17'2 1.9 18.2
2018-Jun-14 10:00S 35°14' E 162°15'4 2.2 18.1
2018-Jun-14 08:00S 35°11' E 162°12'2 1.5 17.8
2018-Jun-14 07:00S 35°10' E 162°11'2 1.9 17.6
2018-Jun-14 06:00S 35°08' E 162°09'1 0.6 17.7
2018-Jun-14 05:00S 35°09' E 162°09'8 1.4 18.0
2018-Jun-13 23:00S 35°05' E 162°00'2 1.6 17.6
2018-Jun-13 22:00S 35°04' E 161°59'1 0.8 17.6
2018-Jun-13 21:00S 35°03' E 161°58'4 1.5 17.6
2018-Jun-13 18:00S 34°59' E 161°55'0 0.0 17.6
2018-Jun-13 17:00S 34°59' E 161°55'2 2.1 17.5
2018-Jun-13 16:00S 34°59' E 161°53'0 0.0 17.5
2018-Jun-13 15:00S 34°59' E 161°53'5 1.6 17.5
2018-Jun-13 12:00S 34°56' E 161°48'1 0.8 17.4
2018-Jun-13 11:00S 34°55' E 161°47'2 2.1 17.6
2018-Jun-13 10:00S 34°53' E 161°46'1 1.0 17.7
2018-Jun-13 09:00S 34°53' E 161°45'3 2.7 17.6
2018-Jun-13 08:00S 34°52' E 161°43'2 2.5 17.7
2018-Jun-13 07:00S 34°52' E 161°40'0 0.0 17.8
2018-Jun-13 06:00S 34°52' E 161°40'0 0.5 17.8
2018-Jun-13 05:00S 34°52' E 161°39'6 1.0 17.9
2018-Jun-12 23:00S 34°50' E 161°32'1 0.6 17.7
2018-Jun-12 22:00S 34°49' E 161°32'1 1.0 17.7
2018-Jun-12 21:00S 34°49' E 161°31'1 0.8 17.7
2018-Jun-12 20:00S 34°49' E 161°30'0 0.0 17.8
2018-Jun-12 18:00S 34°49' E 161°30'1 1.2 17.9
2018-Jun-12 17:00S 34°48' E 161°29'1 0.8 17.9
2018-Jun-12 16:00S 34°47' E 161°28'0 0.0 17.9
2018-Jun-12 15:00S 34°47' E 161°28'1 0.4 18.0
2018-Jun-12 12:00S 34°48' E 161°27'1 0.6 18.0
2018-Jun-12 11:00S 34°49' E 161°27'1 1.5 18.0
2018-Jun-12 10:00S 34°49' E 161°25'0 0.0 18.0
2018-Jun-12 09:00S 34°49' E 161°25'1 0.8 18.0
2018-Jun-12 08:00S 34°48' E 161°25'0 0.5 18.0
2018-Jun-12 07:00S 34°48' E 161°24'0 0.5 18.0
2018-Jun-12 06:00S 34°48' E 161°23'0 0.0 18.0
2018-Jun-12 05:00S 34°48' E 161°23'1 1.5 18.0
2018-Jun-12 04:00S 34°48' E 161°22'0 0.0 18.0
2018-Jun-11 23:00S 34°48' E 161°22'1 0.6 18.0
2018-Jun-11 22:00S 34°49' E 161°22'1 0.6 17.9
2018-Jun-11 21:00S 34°49' E 161°22'0 0.5 17.9
2018-Jun-11 20:00S 34°49' E 161°21'1 0.6 17.8
2018-Jun-11 19:00S 34°50' E 161°21'1 0.8 17.6
2018-Jun-11 18:00S 34°50' E 161°22'1 0.6 17.6
2018-Jun-11 17:00S 34°51' E 161°22'1 1.2 17.6
2018-Jun-11 16:00S 34°52' E 161°22'0 0.0 17.6
2018-Jun-11 15:00S 34°52' E 161°22'4 1.2 17.5
2018-Jun-11 12:00S 34°56' E 161°21'0 0.0 17.2
2018-Jun-11 11:00S 34°56' E 161°21'0 0.0 17.2
2018-Jun-11 10:00S 34°56' E 161°21'1 0.6 17.2
2018-Jun-11 09:00S 34°56' E 161°21'1 0.6 17.5
2018-Jun-11 08:00S 34°57' E 161°21'1 0.6
2018-Jun-11 06:00S 34°58' E 161°22'1 1.3 17.3
2018-Jun-11 05:00S 34°59' E 161°23'0 0.0 17.3
2018-Jun-11 04:00S 34°59' E 161°23'0 0.0 17.3
2018-Jun-11 03:00S 34°59' E 161°23'2 0.6 17.3
2018-Jun-10 23:00S 35°01' E 161°25'1 1.2 17.2
2018-Jun-10 22:00S 35°01' E 161°26'0 0.5 17.2
2018-Jun-10 21:00S 35°01' E 161°26'1 1.3 17.2
2018-Jun-10 20:00S 35°02' E 161°27'1 0.6 17.2
2018-Jun-10 19:00S 35°02' E 161°27'1 0.8 17.2
2018-Jun-10 18:00S 35°02' E 161°28'0 0.0 17.3
2018-Jun-10 17:00S 35°02' E 161°28'1 1.2 17.3
2018-Jun-10 16:00S 35°03' E 161°29'0 0.0 17.3
2018-Jun-10 15:00S 35°03' E 161°29'1 0.2 17.3
2018-Jun-10 12:00S 35°04' E 161°29'0 0.5 17.3
2018-Jun-10 11:00S 35°04' E 161°29'0 0.0 17.3
2018-Jun-10 10:00S 35°04' E 161°29'1 0.4 17.4
2018-Jun-10 08:00S 35°03' E 161°30'0 0.0 17.6
2018-Jun-10 07:00S 35°03' E 161°30'   17.7

Dump ship's entire track history